sensor_id;sensor_type;location;lat;lon;timestamp;temperature;humidity
20139;DHT22;10230;51.502;10.800;2022-11-09T15:04:22;14.80;99.90
20139;DHT22;10230;51.502;10.800;2022-11-09T15:06:54;14.80;99.90
20139;DHT22;10230;51.502;10.800;2022-11-09T15:09:23;14.70;99.90
20139;DHT22;10230;51.502;10.800;2022-11-09T15:11:51;14.70;99.90
20139;DHT22;10230;51.502;10.800;2022-11-09T15:16:43;14.80;99.90
20139;DHT22;10230;51.502;10.800;2022-11-09T15:19:30;14.70;99.90
20139;DHT22;10230;51.502;10.800;2022-11-09T15:21:56;14.70;99.90
20139;DHT22;10230;51.502;10.800;2022-11-09T15:24:24;14.70;99.90
20139;DHT22;10230;51.502;10.800;2022-11-09T15:26:51;14.70;99.90
20139;DHT22;10230;51.502;10.800;2022-11-09T15:29:40;14.60;99.90
20139;DHT22;10230;51.502;10.800;2022-11-09T15:34:38;14.50;99.90
20139;DHT22;10230;51.502;10.800;2022-11-09T15:41:58;14.10;99.90
20139;DHT22;10230;51.502;10.800;2022-11-09T15:44:24;14.30;99.90
20139;DHT22;10230;51.502;10.800;2022-11-09T15:54:13;14.00;99.90
20139;DHT22;10230;51.502;10.800;2022-11-09T15:56:40;14.10;99.90
20139;DHT22;10230;51.502;10.800;2022-11-09T15:59:07;14.10;99.90
20139;DHT22;10230;51.502;10.800;2022-11-09T16:01:33;14.10;99.90
20139;DHT22;10230;51.502;10.800;2022-11-09T16:03:58;14.00;99.90
20139;DHT22;10230;51.502;10.800;2022-11-09T16:06:24;14.20;99.90
20139;DHT22;10230;51.502;10.800;2022-11-09T16:08:51;14.00;99.90
20139;DHT22;10230;51.502;10.800;2022-11-09T16:11:18;14.00;99.90
20139;DHT22;10230;51.502;10.800;2022-11-09T16:13:43;14.00;99.90
20139;DHT22;10230;51.502;10.800;2022-11-09T16:16:11;13.90;99.90
20139;DHT22;10230;51.502;10.800;2022-11-09T16:18:37;13.90;99.90
20139;DHT22;10230;51.502;10.800;2022-11-09T16:23:33;13.70;99.90
20139;DHT22;10230;51.502;10.800;2022-11-09T16:26:11;13.70;99.90
20139;DHT22;10230;51.502;10.800;2022-11-09T18:13:55;13.10;99.90
20139;DHT22;10230;51.502;10.800;2022-11-09T18:16:21;13.20;99.90
20139;DHT22;10230;51.502;10.800;2022-11-09T18:21:16;13.10;99.90
20139;DHT22;10230;51.502;10.800;2022-11-09T18:23:43;13.20;99.90
20139;DHT22;10230;51.502;10.800;2022-11-09T18:43:29;13.00;99.90
20139;DHT22;10230;51.502;10.800;2022-11-09T18:46:08;13.00;99.90
20139;DHT22;10230;51.502;10.800;2022-11-09T18:48:34;13.00;99.90
20139;DHT22;10230;51.502;10.800;2022-11-09T18:51:02;12.90;99.90
20139;DHT22;10230;51.502;10.800;2022-11-09T18:53:33;12.90;99.90
20139;DHT22;10230;51.502;10.800;2022-11-09T18:56:01;12.90;99.90
20139;DHT22;10230;51.502;10.800;2022-11-09T18:58:27;12.90;99.90
20139;DHT22;10230;51.502;10.800;2022-11-09T19:00:58;12.90;99.90
20139;DHT22;10230;51.502;10.800;2022-11-09T19:03:24;12.80;99.90
20139;DHT22;10230;51.502;10.800;2022-11-09T19:05:50;12.80;99.90
20139;DHT22;10230;51.502;10.800;2022-11-09T19:08:16;12.80;99.90
20139;DHT22;10230;51.502;10.800;2022-11-09T19:10:41;12.80;99.90
20139;DHT22;10230;51.502;10.800;2022-11-09T19:13:07;12.80;99.90
20139;DHT22;10230;51.502;10.800;2022-11-09T19:15:33;12.70;99.90
20139;DHT22;10230;51.502;10.800;2022-11-09T19:18:03;12.70;99.90
20139;DHT22;10230;51.502;10.800;2022-11-09T19:20:31;12.70;99.90
20139;DHT22;10230;51.502;10.800;2022-11-09T19:22:57;12.70;99.90
20139;DHT22;10230;51.502;10.800;2022-11-09T19:25:23;12.70;99.90
20139;DHT22;10230;51.502;10.800;2022-11-09T19:27:48;12.70;99.90
20139;DHT22;10230;51.502;10.800;2022-11-09T19:30:14;12.70;99.90
20139;DHT22;10230;51.502;10.800;2022-11-09T19:32:40;12.70;99.90
20139;DHT22;10230;51.502;10.800;2022-11-09T19:35:07;12.70;99.90
20139;DHT22;10230;51.502;10.800;2022-11-09T19:37:33;12.70;99.90
20139;DHT22;10230;51.502;10.800;2022-11-09T19:39:58;12.60;99.90
20139;DHT22;10230;51.502;10.800;2022-11-09T19:42:24;12.60;99.90
20139;DHT22;10230;51.502;10.800;2022-11-09T19:44:49;12.60;99.90
20139;DHT22;10230;51.502;10.800;2022-11-09T19:47:15;12.60;99.90
20139;DHT22;10230;51.502;10.800;2022-11-09T19:49:41;12.90;99.90
20139;DHT22;10230;51.502;10.800;2022-11-09T19:52:07;12.60;99.90
20139;DHT22;10230;51.502;10.800;2022-11-09T19:54:33;12.50;99.90
20139;DHT22;10230;51.502;10.800;2022-11-09T19:56:58;12.60;99.90
20139;DHT22;10230;51.502;10.800;2022-11-09T19:59:24;12.50;99.90
20139;DHT22;10230;51.502;10.800;2022-11-09T20:01:50;12.50;99.90
20139;DHT22;10230;51.502;10.800;2022-11-09T20:04:15;12.60;99.90
20139;DHT22;10230;51.502;10.800;2022-11-09T20:06:41;12.60;99.90
20139;DHT22;10230;51.502;10.800;2022-11-09T20:09:07;12.50;99.90
20139;DHT22;10230;51.502;10.800;2022-11-09T20:11:32;12.50;99.90
20139;DHT22;10230;51.502;10.800;2022-11-09T20:14:17;12.50;99.90
20139;DHT22;10230;51.502;10.800;2022-11-09T20:16:42;12.40;99.90
20139;DHT22;10230;51.502;10.800;2022-11-09T20:19:11;12.40;99.90
20139;DHT22;10230;51.502;10.800;2022-11-09T20:21:37;12.70;99.90
20139;DHT22;10230;51.502;10.800;2022-11-09T20:24:05;12.40;99.90
20139;DHT22;10230;51.502;10.800;2022-11-09T20:26:31;12.40;99.90
20139;DHT22;10230;51.502;10.800;2022-11-09T20:28:56;12.30;99.90
20139;DHT22;10230;51.502;10.800;2022-11-09T20:31:22;12.30;99.90
20139;DHT22;10230;51.502;10.800;2022-11-09T20:33:49;12.30;99.90
20139;DHT22;10230;51.502;10.800;2022-11-09T20:36:15;12.30;99.90
20139;DHT22;10230;51.502;10.800;2022-11-09T20:38:43;12.30;99.90
20139;DHT22;10230;51.502;10.800;2022-11-09T20:41:09;12.30;99.90
20139;DHT22;10230;51.502;10.800;2022-11-09T20:43:36;12.30;99.90
20139;DHT22;10230;51.502;10.800;2022-11-09T20:46:08;12.20;99.90
20139;DHT22;10230;51.502;10.800;2022-11-09T20:48:34;12.20;99.90
20139;DHT22;10230;51.502;10.800;2022-11-09T20:51:07;12.20;99.90
20139;DHT22;10230;51.502;10.800;2022-11-09T20:53:33;12.20;99.90
20139;DHT22;10230;51.502;10.800;2022-11-09T20:55:59;12.20;99.90
20139;DHT22;10230;51.502;10.800;2022-11-09T20:58:25;12.20;99.90
20139;DHT22;10230;51.502;10.800;2022-11-09T21:01:03;12.20;99.90
20139;DHT22;10230;51.502;10.800;2022-11-09T21:03:29;12.20;99.90
20139;DHT22;10230;51.502;10.800;2022-11-09T21:05:59;12.20;99.90
20139;DHT22;10230;51.502;10.800;2022-11-09T21:08:26;12.20;99.90
20139;DHT22;10230;51.502;10.800;2022-11-09T21:10:52;12.10;99.90
20139;DHT22;10230;51.502;10.800;2022-11-09T21:13:18;12.10;99.90
20139;DHT22;10230;51.502;10.800;2022-11-09T21:18:10;11.80;99.90
20139;DHT22;10230;51.502;10.800;2022-11-09T21:20:36;12.10;99.90
20139;DHT22;10230;51.502;10.800;2022-11-09T21:23:02;12.00;99.90
20139;DHT22;10230;51.502;10.800;2022-11-09T21:25:37;12.00;99.90
20139;DHT22;10230;51.502;10.800;2022-11-09T21:28:21;12.00;99.90
20139;DHT22;10230;51.502;10.800;2022-11-09T21:35:58;12.00;99.90
20139;DHT22;10230;51.502;10.800;2022-11-09T21:38:31;12.00;99.90
20139;DHT22;10230;51.502;10.800;2022-11-09T21:41:01;11.90;99.90
20139;DHT22;10230;51.502;10.800;2022-11-09T21:43:45;11.90;99.90
20139;DHT22;10230;51.502;10.800;2022-11-09T21:46:11;11.90;99.90
20139;DHT22;10230;51.502;10.800;2022-11-09T21:48:37;11.90;99.90
20139;DHT22;10230;51.502;10.800;2022-11-09T21:51:02;11.90;99.90
20139;DHT22;10230;51.502;10.800;2022-11-09T21:53:28;11.90;99.90
20139;DHT22;10230;51.502;10.800;2022-11-09T21:55:54;11.80;99.90
20139;DHT22;10230;51.502;10.800;2022-11-09T21:58:19;11.80;99.90
20139;DHT22;10230;51.502;10.800;2022-11-09T22:00:45;11.80;99.90
20139;DHT22;10230;51.502;10.800;2022-11-09T22:03:11;11.80;99.90
20139;DHT22;10230;51.502;10.800;2022-11-09T22:05:38;11.80;99.90
20139;DHT22;10230;51.502;10.800;2022-11-09T22:08:04;11.80;99.90
20139;DHT22;10230;51.502;10.800;2022-11-09T22:10:29;11.80;99.90
20139;DHT22;10230;51.502;10.800;2022-11-09T22:12:55;11.80;99.90
20139;DHT22;10230;51.502;10.800;2022-11-09T22:15:39;11.90;99.90
20139;DHT22;10230;51.502;10.800;2022-11-09T22:18:23;11.90;99.90
20139;DHT22;10230;51.502;10.800;2022-11-09T22:21:07;11.90;99.90
20139;DHT22;10230;51.502;10.800;2022-11-09T22:23:33;11.80;99.90
20139;DHT22;10230;51.502;10.800;2022-11-09T22:30:54;11.60;99.90
20139;DHT22;10230;51.502;10.800;2022-11-09T22:33:20;11.60;99.90
20139;DHT22;10230;51.502;10.800;2022-11-09T22:35:53;11.70;99.90
20139;DHT22;10230;51.502;10.800;2022-11-09T22:38:19;11.70;99.90
20139;DHT22;10230;51.502;10.800;2022-11-09T22:43:10;11.50;99.90
20139;DHT22;10230;51.502;10.800;2022-11-09T22:45:36;11.50;99.90
20139;DHT22;10230;51.502;10.800;2022-11-09T22:48:01;11.50;99.90
20139;DHT22;10230;51.502;10.800;2022-11-09T22:50:27;11.50;99.90
20139;DHT22;10230;51.502;10.800;2022-11-09T22:52:56;11.40;99.90
20139;DHT22;10230;51.502;10.800;2022-11-09T23:07:33;11.30;99.90
20139;DHT22;10230;51.502;10.800;2022-11-09T23:09:59;11.20;99.90
20139;DHT22;10230;51.502;10.800;2022-11-09T23:12:25;11.20;99.90
20139;DHT22;10230;51.502;10.800;2022-11-09T23:14:51;11.10;99.90
20139;DHT22;10230;51.502;10.800;2022-11-09T23:17:34;11.10;99.90
20139;DHT22;10230;51.502;10.800;2022-11-09T23:20:20;11.10;99.90
20139;DHT22;10230;51.502;10.800;2022-11-09T23:22:46;11.20;99.90
20139;DHT22;10230;51.502;10.800;2022-11-09T23:25:13;11.20;99.90
20139;DHT22;10230;51.502;10.800;2022-11-09T23:27:57;11.30;99.90
20139;DHT22;10230;51.502;10.800;2022-11-09T23:30:24;11.30;99.90
20139;DHT22;10230;51.502;10.800;2022-11-09T23:32:49;11.40;99.90
20139;DHT22;10230;51.502;10.800;2022-11-09T23:35:16;11.40;99.90
20139;DHT22;10230;51.502;10.800;2022-11-09T23:37:41;11.50;99.90
20139;DHT22;10230;51.502;10.800;2022-11-09T23:40:07;11.50;99.90
20139;DHT22;10230;51.502;10.800;2022-11-09T23:42:33;11.50;99.90
20139;DHT22;10230;51.502;10.800;2022-11-09T23:44:59;11.60;99.90
20139;DHT22;10230;51.502;10.800;2022-11-09T23:47:24;11.60;99.90
20139;DHT22;10230;51.502;10.800;2022-11-09T23:49:50;11.70;99.90
20139;DHT22;10230;51.502;10.800;2022-11-09T23:52:16;11.70;99.90
20139;DHT22;10230;51.502;10.800;2022-11-09T23:54:41;11.80;99.90
20139;DHT22;10230;51.502;10.800;2022-11-09T23:57:07;11.80;99.90
20139;DHT22;10230;51.502;10.800;2022-11-09T23:59:34;11.80;99.90
